Time;durP1;ratioP1;P1;durP2;ratioP2;P2;SDS_P1;SDS_P2;PMS_P1;PMS_P2;Temp;Humidity;BMP_temperature;BMP_pressure;BME280_temperature;BME280_humidity;BME280_pressure;Samples;Min_cycle;Max_cycle;Signal;HPM_P1;HPM_P2
2024/03/27 00:00:07;;;;;;;11.65;6.03;;;;;;;;;;5014307;28;20057;-70
2024/03/27 00:02:36;;;;;;;9.80;6.63;;;;;;;;;;5014831;28;20026;-71
2024/03/27 00:05:03;;;;;;;9.57;6.95;;;;;;;;;;5014906;28;20042;-71
2024/03/27 00:07:29;;;;;;;8.88;5.68;;;;;;;;;;5005852;23;20050;-72
2024/03/27 00:09:54;;;;;;;8.75;5.63;;;;;;;;;;4995105;28;20096;-72
2024/03/27 00:12:20;;;;;;;7.00;5.13;;;;;;;;;;4995105;28;20116;-72
2024/03/27 00:14:45;;;;;;;8.65;4.75;;;;;;;;;;4994443;28;20038;-72
2024/03/27 00:17:10;;;;;;;6.93;4.70;;;;;;;;;;5014351;28;20022;-73
2024/03/27 00:19:36;;;;;;;5.82;4.28;;;;;;;;;;5013020;28;20424;-72
2024/03/27 00:22:02;;;;;;;6.93;4.28;;;;;;;;;;5013992;28;20030;-72
2024/03/27 00:24:29;;;;;;;5.57;4.15;;;;;;;;;;5014556;28;20361;-72
2024/03/27 00:26:55;;;;;;;5.13;4.05;;;;;;;;;;5013933;28;20063;-72
2024/03/27 00:29:20;;;;;;;6.00;4.03;;;;;;;;;;5012816;28;20100;-72
2024/03/27 00:31:45;;;;;;;5.68;3.88;;;;;;;;;;5013835;28;20544;-72
2024/03/27 00:34:11;;;;;;;6.97;4.10;;;;;;;;;;5012922;28;20117;-72
2024/03/27 00:36:36;;;;;;;6.25;4.57;;;;;;;;;;5012602;28;20125;-72
2024/03/27 00:39:01;;;;;;;6.50;5.47;;;;;;;;;;5013838;28;20069;-72
2024/03/27 00:41:27;;;;;;;7.07;5.32;;;;;;;;;;5014260;28;20144;-72
2024/03/27 00:43:52;;;;;;;10.93;5.47;;;;;;;;;;5014051;28;20038;-72
2024/03/27 00:46:17;;;;;;;7.55;4.70;;;;;;;;;;5014058;28;20080;-72
2024/03/27 00:48:43;;;;;;;7.13;4.57;;;;;;;;;;5014074;28;20034;-72
2024/03/27 00:51:08;;;;;;;4.63;3.78;;;;;;;;;;5013752;28;20105;-72
2024/03/27 00:53:34;;;;;;;5.15;3.78;;;;;;;;;;5014243;28;20022;-72
2024/03/27 00:56:01;;;;;;;6.53;3.90;;;;;;;;;;5014051;28;20033;-71
2024/03/27 00:58:27;;;;;;;5.40;3.90;;;;;;;;;;5013940;28;20021;-71
2024/03/27 01:00:52;;;;;;;4.10;3.70;;;;;;;;;;5013225;28;20026;-72
2024/03/27 01:03:18;;;;;;;4.28;3.50;;;;;;;;;;5012386;28;20385;-72
2024/03/27 01:05:43;;;;;;;5.15;3.60;;;;;;;;;;5013841;28;20026;-72
2024/03/27 01:08:11;;;;;;;3.80;3.30;;;;;;;;;;5015126;23;20410;-70
2024/03/27 01:10:37;;;;;;;4.07;3.22;;;;;;;;;;4993882;28;20109;-71
2024/03/27 01:13:02;;;;;;;4.32;3.40;;;;;;;;;;4976479;28;20426;-71
2024/03/27 01:15:28;;;;;;;5.60;3.13;;;;;;;;;;4976346;28;20038;-71
2024/03/27 01:17:53;;;;;;;4.70;3.17;;;;;;;;;;4993852;28;20060;-71
2024/03/27 01:20:19;;;;;;;4.30;3.50;;;;;;;;;;4994062;28;20046;-71
2024/03/27 01:22:44;;;;;;;4.25;3.50;;;;;;;;;;4976953;28;20042;-71
2024/03/27 01:25:12;;;;;;;4.88;3.42;;;;;;;;;;5008888;28;20089;-71
2024/03/27 01:27:38;;;;;;;4.28;3.25;;;;;;;;;;4994640;28;20038;-71
2024/03/27 01:30:04;;;;;;;5.68;3.10;;;;;;;;;;4979934;28;20037;-71
2024/03/27 01:32:30;;;;;;;4.05;3.10;;;;;;;;;;4997656;28;20037;-71
2024/03/27 01:34:55;;;;;;;4.07;2.95;;;;;;;;;;4979778;28;20022;-72
2024/03/27 01:37:20;;;;;;;4.72;3.10;;;;;;;;;;4997989;28;20358;-72
2024/03/27 01:39:46;;;;;;;4.07;2.88;;;;;;;;;;5012273;28;20056;-72
2024/03/27 01:42:11;;;;;;;3.00;2.63;;;;;;;;;;4997181;28;20037;-72
2024/03/27 01:44:37;;;;;;;3.15;2.85;;;;;;;;;;5012259;28;20027;-72
2024/03/27 01:47:02;;;;;;;3.90;3.08;;;;;;;;;;4997119;28;20434;-72
2024/03/27 01:49:29;;;;;;;3.33;2.75;;;;;;;;;;4979573;28;20466;-72
2024/03/27 01:51:54;;;;;;;3.13;2.72;;;;;;;;;;4979940;28;20034;-72
2024/03/27 01:54:21;;;;;;;4.13;3.22;;;;;;;;;;4996930;28;20030;-74
2024/03/27 01:56:46;;;;;;;3.33;2.60;;;;;;;;;;5012072;28;20030;-74
2024/03/27 01:59:12;;;;;;;5.03;3.15;;;;;;;;;;4996903;28;20026;-72
2024/03/27 02:01:43;;;;;;;3.30;3.00;;;;;;;;;;4980040;28;20466;-72
2024/03/27 02:04:09;;;;;;;3.28;2.78;;;;;;;;;;4997026;28;20158;-72
2024/03/27 02:06:34;;;;;;;3.13;2.83;;;;;;;;;;4997322;28;20145;-72
2024/03/27 02:09:00;;;;;;;4.07;3.15;;;;;;;;;;4996637;28;20136;-72
2024/03/27 02:11:25;;;;;;;3.63;3.10;;;;;;;;;;4996734;28;20477;-73
2024/03/27 02:13:59;;;;;;;4.68;3.10;;;;;;;;;;4996600;28;20610;-71
2024/03/27 02:16:25;;;;;;;3.65;3.13;;;;;;;;;;4979676;28;20030;-74
2024/03/27 02:18:51;;;;;;;4.82;2.97;;;;;;;;;;4979566;28;20022;-70
2024/03/27 02:21:17;;;;;;;3.80;3.10;;;;;;;;;;4997537;28;20035;-70
2024/03/27 02:23:52;;;;;;;4.63;3.50;;;;;;;;;;4997328;28;20129;-70
2024/03/27 02:26:24;;;;;;;4.43;3.70;;;;;;;;;;4996685;28;20034;-70
2024/03/27 02:28:49;;;;;;;4.85;3.05;;;;;;;;;;4996700;28;20034;-71
2024/03/27 02:31:15;;;;;;;4.18;3.20;;;;;;;;;;4996615;28;20096;-73
2024/03/27 02:33:40;;;;;;;4.15;3.13;;;;;;;;;;4979175;28;20470;-72
2024/03/27 02:36:06;;;;;;;4.28;3.55;;;;;;;;;;4996146;28;20437;-72
2024/03/27 02:38:31;;;;;;;5.75;3.15;;;;;;;;;;4979068;28;20069;-70
2024/03/27 02:40:57;;;;;;;3.55;3.20;;;;;;;;;;4995884;28;20031;-70
2024/03/27 02:43:22;;;;;;;4.55;3.55;;;;;;;;;;4996237;28;20030;-69
2024/03/27 02:45:48;;;;;;;4.90;3.25;;;;;;;;;;4996349;28;20113;-70
2024/03/27 02:48:14;;;;;;;5.55;3.50;;;;;;;;;;4978591;28;20096;-71
2024/03/27 02:50:39;;;;;;;4.43;2.88;;;;;;;;;;4995955;28;20497;-73
2024/03/27 02:53:05;;;;;;;3.30;3.03;;;;;;;;;;4995955;28;20062;-73
2024/03/27 02:55:30;;;;;;;4.72;3.33;;;;;;;;;;4996499;28;20359;-73
2024/03/27 02:57:55;;;;;;;3.72;3.08;;;;;;;;;;4996106;28;20080;-73
2024/03/27 03:00:21;;;;;;;4.22;3.33;;;;;;;;;;4978381;28;20129;-72
2024/03/27 03:02:46;;;;;;;4.38;2.88;;;;;;;;;;4996288;28;20062;-72
2024/03/27 03:05:12;;;;;;;5.03;3.35;;;;;;;;;;4995721;28;20030;-73
2024/03/27 03:07:37;;;;;;;3.85;3.50;;;;;;;;;;4968272;28;20047;-73
2024/03/27 03:10:03;;;;;;;4.18;3.47;;;;;;;;;;4957174;28;20122;-72
2024/03/27 03:12:29;;;;;;;4.43;3.38;;;;;;;;;;4971641;28;20062;-72
2024/03/27 03:14:58;;;;;;;3.95;3.38;;;;;;;;;;4956782;28;20073;-72
2024/03/27 03:17:23;;;;;;;3.60;3.28;;;;;;;;;;4956798;28;20035;-72
2024/03/27 03:19:48;;;;;;;3.42;3.08;;;;;;;;;;4939813;29;20042;-72
2024/03/27 03:22:16;;;;;;;3.47;3.08;;;;;;;;;;4956937;28;20034;-72
2024/03/27 03:24:41;;;;;;;6.70;3.53;;;;;;;;;;4956857;29;20043;-71
2024/03/27 03:27:08;;;;;;;5.03;3.80;;;;;;;;;;4957143;29;20027;-71
2024/03/27 03:29:33;;;;;;;6.97;4.60;;;;;;;;;;4956792;28;20051;-72
2024/03/27 03:31:59;;;;;;;3.50;3.20;;;;;;;;;;4956755;28;20422;-72
2024/03/27 03:34:24;;;;;;;4.90;3.38;;;;;;;;;;4956433;28;20046;-72
2024/03/27 03:36:50;;;;;;;3.97;3.40;;;;;;;;;;4955522;29;20043;-72
2024/03/27 03:39:16;;;;;;;4.43;3.25;;;;;;;;;;4956316;29;20026;-72
2024/03/27 03:41:41;;;;;;;3.05;2.85;;;;;;;;;;4939128;29;20410;-72
2024/03/27 03:44:06;;;;;;;4.93;3.25;;;;;;;;;;4956264;28;20082;-72
2024/03/27 03:46:32;;;;;;;3.28;2.97;;;;;;;;;;4954970;29;20031;-72
2024/03/27 03:48:57;;;;;;;5.43;3.38;;;;;;;;;;4956481;28;20039;-72
2024/03/27 03:51:22;;;;;;;8.00;3.50;;;;;;;;;;4956027;28;20023;-72
2024/03/27 03:53:48;;;;;;;6.35;2.60;;;;;;;;;;4956072;28;20011;-72
2024/03/27 03:56:13;;;;;;;3.35;3.00;;;;;;;;;;4956111;28;20114;-72
2024/03/27 03:58:47;;;;;;;5.90;3.13;;;;;;;;;;4956279;28;20023;-72
2024/03/27 04:01:12;;;;;;;6.35;3.13;;;;;;;;;;4956397;28;20118;-72
2024/03/27 04:03:37;;;;;;;3.00;2.47;;;;;;;;;;4956301;28;20109;-72
2024/03/27 04:06:03;;;;;;;5.18;2.90;;;;;;;;;;4956476;28;20035;-72
2024/03/27 04:08:28;;;;;;;3.72;2.47;;;;;;;;;;4954494;28;20147;-72
2024/03/27 04:10:54;;;;;;;3.55;2.90;;;;;;;;;;4955804;28;20054;-72
2024/03/27 04:13:19;;;;;;;3.25;2.80;;;;;;;;;;4938643;29;20406;-72
2024/03/27 04:15:45;;;;;;;3.38;2.50;;;;;;;;;;4956044;28;20122;-72
2024/03/27 04:18:10;;;;;;;2.88;2.67;;;;;;;;;;4955755;28;20102;-72
2024/03/27 04:20:42;;;;;;;5.38;3.10;;;;;;;;;;4955014;29;20031;-72
2024/03/27 04:23:07;;;;;;;2.60;2.40;;;;;;;;;;4955503;29;20031;-72
2024/03/27 04:25:33;;;;;;;3.97;2.80;;;;;;;;;;4956323;28;20122;-72
2024/03/27 04:27:58;;;;;;;4.00;3.10;;;;;;;;;;4956040;28;20035;-71
2024/03/27 04:30:24;;;;;;;6.57;4.32;;;;;;;;;;4955591;28;20515;-71
2024/03/27 04:32:49;;;;;;;12.40;7.88;;;;;;;;;;4956236;28;20542;-71
2024/03/27 04:35:15;;;;;;;12.73;7.90;;;;;;;;;;4970330;28;20050;-72
2024/03/27 04:37:40;;;;;;;7.85;5.40;;;;;;;;;;4955622;29;20031;-72
2024/03/27 04:40:12;;;;;;;6.68;4.60;;;;;;;;;;4955823;28;20023;-72
2024/03/27 04:42:41;;;;;;;7.03;4.30;;;;;;;;;;4955476;28;20031;-73
2024/03/27 04:45:08;;;;;;;11.57;4.28;;;;;;;;;;4970377;28;20035;-72
2024/03/27 04:47:36;;;;;;;4.78;3.38;;;;;;;;;;4955735;28;20039;-73
2024/03/27 04:50:05;;;;;;;6.40;4.15;;;;;;;;;;4938214;29;20061;-71
2024/03/27 04:52:31;;;;;;;14.82;8.80;;;;;;;;;;4955512;28;20039;-71
2024/03/27 04:54:56;;;;;;;14.48;8.43;;;;;;;;;;4955596;28;20155;-72
2024/03/27 04:57:22;;;;;;;7.88;4.03;;;;;;;;;;4955437;29;20035;-72
2024/03/27 04:59:48;;;;;;;3.05;2.65;;;;;;;;;;4954631;29;20034;-72
2024/03/27 05:02:14;;;;;;;3.15;2.55;;;;;;;;;;4984468;23;20046;-72
2024/03/27 05:04:39;;;;;;;2.53;2.33;;;;;;;;;;4980207;28;20030;-67
2024/03/27 05:07:05;;;;;;;2.80;2.55;;;;;;;;;;5013459;28;20481;-71
2024/03/27 05:09:31;;;;;;;2.47;2.28;;;;;;;;;;4998468;28;20385;-67
2024/03/27 05:11:59;;;;;;;2.40;2.20;;;;;;;;;;4998161;28;20018;-70
2024/03/27 05:14:24;;;;;;;4.47;2.47;;;;;;;;;;4998107;28;20030;-71
2024/03/27 05:16:51;;;;;;;3.58;3.22;;;;;;;;;;5012819;28;20014;-72
2024/03/27 05:19:16;;;;;;;3.50;3.20;;;;;;;;;;4997917;28;20040;-72
2024/03/27 05:21:43;;;;;;;6.65;3.58;;;;;;;;;;4998153;28;20026;-72
2024/03/27 05:24:09;;;;;;;6.45;3.92;;;;;;;;;;4998017;28;20035;-72
2024/03/27 05:26:34;;;;;;;4.20;3.15;;;;;;;;;;4980097;28;20015;-72
2024/03/27 05:29:00;;;;;;;3.80;3.10;;;;;;;;;;4997559;28;20367;-72
2024/03/27 05:31:25;;;;;;;3.20;2.90;;;;;;;;;;4998350;28;20026;-71
2024/03/27 05:33:51;;;;;;;5.28;2.92;;;;;;;;;;4966405;28;20450;-71
2024/03/27 05:36:16;;;;;;;3.35;2.50;;;;;;;;;;4998505;28;20042;-71
2024/03/27 05:38:41;;;;;;;2.40;2.20;;;;;;;;;;4997385;28;20038;-71
2024/03/27 05:41:07;;;;;;;2.80;2.40;;;;;;;;;;4997565;28;20034;-71
2024/03/27 05:43:32;;;;;;;2.78;2.30;;;;;;;;;;4963701;28;20500;-70
2024/03/27 05:45:58;;;;;;;2.28;2.08;;;;;;;;;;4997967;28;20050;-70
2024/03/27 05:48:23;;;;;;;6.97;2.55;;;;;;;;;;4997421;28;20032;-71
2024/03/27 05:50:51;;;;;;;3.85;2.17;;;;;;;;;;4997802;28;20038;-71
2024/03/27 05:53:16;;;;;;;2.20;2.00;;;;;;;;;;4997485;28;20445;-70
2024/03/27 05:55:41;;;;;;;2.70;2.28;;;;;;;;;;4996924;28;20026;-71
2024/03/27 05:58:07;;;;;;;3.30;2.40;;;;;;;;;;4979787;28;20014;-70
2024/03/27 06:00:33;;;;;;;2.58;2.38;;;;;;;;;;4996917;28;20411;-71
2024/03/27 06:02:58;;;;;;;2.78;2.50;;;;;;;;;;4963470;28;20042;-71
2024/03/27 06:05:23;;;;;;;2.92;2.50;;;;;;;;;;4996756;28;20568;-71
2024/03/27 06:07:50;;;;;;;3.55;2.05;;;;;;;;;;4996801;28;20026;-71
2024/03/27 06:10:15;;;;;;;6.18;2.15;;;;;;;;;;4979943;28;20038;-71
2024/03/27 06:12:41;;;;;;;3.05;2.28;;;;;;;;;;4997077;28;20096;-71
2024/03/27 06:15:06;;;;;;;4.03;2.15;;;;;;;;;;4996135;28;20035;-71
2024/03/27 06:17:32;;;;;;;1.98;1.88;;;;;;;;;;4979108;28;20037;-71
2024/03/27 06:19:57;;;;;;;2.58;2.13;;;;;;;;;;4997084;28;20029;-71
2024/03/27 06:22:22;;;;;;;3.65;2.08;;;;;;;;;;4997081;28;20062;-71
2024/03/27 06:24:49;;;;;;;3.72;2.28;;;;;;;;;;4995716;28;20034;-71
2024/03/27 06:27:15;;;;;;;4.97;2.38;;;;;;;;;;4976878;28;20446;-72
2024/03/27 06:29:40;;;;;;;2.40;2.03;;;;;;;;;;4975158;28;20050;-72
2024/03/27 06:32:06;;;;;;;2.50;2.20;;;;;;;;;;4976102;28;20505;-71
2024/03/27 06:34:32;;;;;;;3.33;2.45;;;;;;;;;;4994555;28;20058;-71
2024/03/27 06:36:57;;;;;;;5.60;2.40;;;;;;;;;;4993362;28;20335;-72
2024/03/27 06:39:23;;;;;;;3.40;2.60;;;;;;;;;;4975136;28;20034;-71
2024/03/27 06:41:48;;;;;;;6.60;2.50;;;;;;;;;;4992496;28;20019;-71
2024/03/27 06:44:15;;;;;;;3.60;3.30;;;;;;;;;;4992633;28;20018;-72
2024/03/27 06:46:40;;;;;;;2.28;1.88;;;;;;;;;;4993029;28;20022;-72
2024/03/27 06:49:18;;;;;;;4.13;2.28;;;;;;;;;;4992776;28;20037;-72
2024/03/27 06:51:47;;;;;;;3.65;2.10;;;;;;;;;;4975304;28;20485;-72
2024/03/27 06:54:12;;;;;;;2.20;2.05;;;;;;;;;;4993393;28;20026;-72
2024/03/27 06:56:38;;;;;;;3.30;1.92;;;;;;;;;;4995014;28;20033;-72
2024/03/27 06:59:04;;;;;;;3.83;1.92;;;;;;;;;;4995745;28;20031;-72
2024/03/27 07:01:29;;;;;;;1.80;1.70;;;;;;;;;;4995915;28;20034;-72
2024/03/27 07:03:55;;;;;;;2.78;1.77;;;;;;;;;;4996329;28;20030;-72
2024/03/27 07:06:20;;;;;;;3.03;2.28;;;;;;;;;;4995963;28;20105;-72
2024/03/27 07:08:46;;;;;;;2.45;1.70;;;;;;;;;;4995572;28;20513;-72
2024/03/27 07:11:11;;;;;;;7.45;2.20;;;;;;;;;;5014748;23;20488;-71
2024/03/27 07:13:36;;;;;;;3.75;1.85;;;;;;;;;;5015188;28;20475;-72
2024/03/27 07:16:03;;;;;;;2.55;1.52;;;;;;;;;;5015575;28;20030;-71
2024/03/27 07:18:28;;;;;;;2.67;1.80;;;;;;;;;;5015097;28;20107;-72
2024/03/27 07:20:55;;;;;;;2.80;2.03;;;;;;;;;;5015314;28;20022;-72
2024/03/27 07:23:20;;;;;;;2.03;1.50;;;;;;;;;;5015252;28;20180;-72
2024/03/27 07:25:46;;;;;;;2.05;1.70;;;;;;;;;;5014851;28;20524;-72
2024/03/27 07:28:12;;;;;;;3.75;1.95;;;;;;;;;;5015132;28;20033;-72
2024/03/27 07:30:37;;;;;;;2.78;1.63;;;;;;;;;;5014870;28;20481;-72
2024/03/27 07:33:04;;;;;;;1.73;1.63;;;;;;;;;;5014814;28;20026;-71
2024/03/27 07:35:30;;;;;;;2.13;1.90;;;;;;;;;;5012835;28;20030;-71
2024/03/27 07:37:55;;;;;;;3.25;1.88;;;;;;;;;;5026837;23;20058;-70
2024/03/27 07:40:21;;;;;;;1.40;1.30;;;;;;;;;;4995154;28;20385;-71
2024/03/27 07:42:46;;;;;;;1.35;1.25;;;;;;;;;;4995591;28;20038;-71
2024/03/27 07:45:11;;;;;;;2.17;1.40;;;;;;;;;;4993694;28;20030;-71
2024/03/27 07:47:37;;;;;;;1.55;1.05;;;;;;;;;;4995233;28;20041;-71
2024/03/27 07:50:03;;;;;;;1.60;1.42;;;;;;;;;;4995209;28;20034;-70
2024/03/27 07:52:28;;;;;;;1.80;1.20;;;;;;;;;;4994920;28;20358;-71
2024/03/27 07:54:53;;;;;;;1.15;1.05;;;;;;;;;;4995288;28;20109;-71
2024/03/27 07:57:19;;;;;;;4.00;1.40;;;;;;;;;;4993581;28;20026;-71
2024/03/27 07:59:44;;;;;;;2.78;1.35;;;;;;;;;;4994726;28;20029;-71
2024/03/27 08:02:09;;;;;;;1.85;1.13;;;;;;;;;;4994702;28;20026;-71
2024/03/27 08:04:35;;;;;;;0.88;0.88;;;;;;;;;;4962189;23;20082;-70
2024/03/27 08:07:00;;;;;;;0.52;0.52;;;;;;;;;;5015913;23;20090;-71
2024/03/27 08:09:26;;;;;;;0.68;0.68;;;;;;;;;;4994574;28;20077;-71
2024/03/27 08:11:52;;;;;;;2.70;1.20;;;;;;;;;;4995111;28;20118;-71
2024/03/27 08:14:17;;;;;;;1.92;1.33;;;;;;;;;;4976920;28;20034;-71
2024/03/27 08:16:42;;;;;;;1.55;1.23;;;;;;;;;;4994762;28;20167;-70
2024/03/27 08:19:08;;;;;;;1.55;0.85;;;;;;;;;;5009560;28;20385;-71
2024/03/27 08:21:33;;;;;;;3.28;1.35;;;;;;;;;;4994388;28;20461;-71
2024/03/27 08:23:59;;;;;;;1.65;1.30;;;;;;;;;;4994947;28;20030;-72
2024/03/27 08:26:24;;;;;;;2.75;1.38;;;;;;;;;;5009703;28;20034;-71
2024/03/27 08:28:50;;;;;;;2.03;1.23;;;;;;;;;;4994325;28;20057;-71
2024/03/27 08:31:15;;;;;;;0.93;0.90;;;;;;;;;;4976873;28;20050;-71
2024/03/27 08:33:44;;;;;;;3.63;1.45;;;;;;;;;;4994572;28;20370;-71
2024/03/27 08:36:10;;;;;;;1.33;1.23;;;;;;;;;;4994712;28;20030;-70
2024/03/27 08:38:35;;;;;;;5.63;1.48;;;;;;;;;;4976255;28;20068;-70
2024/03/27 08:41:00;;;;;;;3.33;1.60;;;;;;;;;;4976895;28;20057;-71
2024/03/27 08:43:26;;;;;;;1.77;1.67;;;;;;;;;;4994448;28;20030;-71
2024/03/27 08:45:51;;;;;;;0.47;0.40;;;;;;;;;;4961217;28;20038;-71
2024/03/27 08:48:16;;;;;;;4.63;1.48;;;;;;;;;;4992881;28;20499;-70
2024/03/27 08:50:42;;;;;;;0.50;0.50;;;;;;;;;;4994409;28;20058;-71
2024/03/27 08:53:07;;;;;;;1.23;1.13;;;;;;;;;;4994601;28;20034;-71
2024/03/27 08:55:43;;;;;;;1.38;1.00;;;;;;;;;;4994272;28;20030;-71
2024/03/27 08:58:08;;;;;;;2.15;1.23;;;;;;;;;;4986062;28;20038;-71
2024/03/27 09:00:35;;;;;;;4.30;1.60;;;;;;;;;;4972889;28;20030;-70
2024/03/27 09:03:04;;;;;;;2.80;1.38;;;;;;;;;;4990246;28;20030;-70
2024/03/27 09:05:30;;;;;;;1.58;1.48;;;;;;;;;;4973541;28;20029;-70
2024/03/27 09:07:55;;;;;;;1.05;0.80;;;;;;;;;;5005077;28;20039;-69
2024/03/27 09:10:20;;;;;;;1.08;1.08;;;;;;;;;;4972581;28;20034;-70
2024/03/27 09:12:46;;;;;;;1.83;1.00;;;;;;;;;;4990280;28;20058;-69
2024/03/27 09:15:11;;;;;;;1.27;1.00;;;;;;;;;;4988362;28;20136;-70
2024/03/27 09:17:37;;;;;;;1.73;1.25;;;;;;;;;;4990189;28;20031;-70
2024/03/27 09:20:03;;;;;;;1.75;1.05;;;;;;;;;;4989905;28;20073;-70
2024/03/27 09:22:32;;;;;;;1.70;1.00;;;;;;;;;;4972360;28;20038;-71
2024/03/27 09:24:57;;;;;;;1.02;1.02;;;;;;;;;;4990196;28;20113;-71
2024/03/27 09:27:23;;;;;;;1.60;1.30;;;;;;;;;;4988590;28;20536;-71
2024/03/27 09:29:52;;;;;;;1.52;1.25;;;;;;;;;;4990372;28;20026;-71
2024/03/27 09:32:17;;;;;;;1.33;1.00;;;;;;;;;;4989898;28;20168;-70
2024/03/27 09:34:42;;;;;;;1.88;1.40;;;;;;;;;;4989944;28;20113;-70
2024/03/27 09:37:08;;;;;;;2.60;1.35;;;;;;;;;;4990074;28;20449;-70
2024/03/27 09:39:33;;;;;;;1.25;1.00;;;;;;;;;;4989648;28;20049;-69
2024/03/27 09:42:02;;;;;;;0.60;0.60;;;;;;;;;;4990324;28;20485;-71
2024/03/27 09:44:29;;;;;;;3.95;1.10;;;;;;;;;;4972993;28;20034;-70
2024/03/27 09:46:57;;;;;;;0.77;0.40;;;;;;;;;;4973071;28;20034;-71
2024/03/27 09:49:22;;;;;;;2.35;1.10;;;;;;;;;;4972492;28;20038;-70
2024/03/27 09:51:47;;;;;;;1.13;1.00;;;;;;;;;;4994031;28;20374;-70
2024/03/27 09:54:13;;;;;;;0.45;0.45;;;;;;;;;;4993875;28;20109;-70
2024/03/27 09:56:38;;;;;;;0.85;0.80;;;;;;;;;;4977423;28;20077;-69
2024/03/27 09:59:05;;;;;;;1.20;1.02;;;;;;;;;;4994460;28;20037;-71
2024/03/27 10:01:33;;;;;;;2.28;1.10;;;;;;;;;;4994386;28;20033;-71
2024/03/27 10:03:59;;;;;;;3.40;0.80;;;;;;;;;;4994129;28;20837;-71
2024/03/27 10:06:25;;;;;;;0.80;0.80;;;;;;;;;;4994615;28;20058;-71
2024/03/27 10:08:50;;;;;;;0.75;0.75;;;;;;;;;;4997336;28;20026;-71
2024/03/27 10:11:16;;;;;;;4.18;0.98;;;;;;;;;;4979530;28;20097;-72
2024/03/27 10:13:42;;;;;;;1.45;0.70;;;;;;;;;;4996969;28;20030;-72
2024/03/27 10:16:11;;;;;;;2.83;1.00;;;;;;;;;;4979132;28;20091;-72
2024/03/27 10:18:40;;;;;;;3.78;0.80;;;;;;;;;;4994669;28;20485;-72
2024/03/27 10:21:06;;;;;;;0.50;0.50;;;;;;;;;;4977404;28;20073;-72
2024/03/27 10:23:31;;;;;;;1.92;0.90;;;;;;;;;;4994607;28;20485;-72
2024/03/27 10:26:01;;;;;;;1.75;1.00;;;;;;;;;;4977134;28;20111;-72
2024/03/27 10:28:26;;;;;;;0.93;0.80;;;;;;;;;;4994502;28;20397;-72
2024/03/27 10:30:57;;;;;;;1.00;0.70;;;;;;;;;;5009718;28;20787;-72
2024/03/27 10:33:22;;;;;;;;;;;;;;;;;;4995030;28;20038;-72
2024/03/27 10:35:50;;;;;;;0.88;0.65;;;;;;;;;;4976799;28;19920;-72
2024/03/27 10:38:15;;;;;;;4.25;1.30;;;;;;;;;;4994284;28;20045;-72
2024/03/27 10:40:41;;;;;;;2.40;1.10;;;;;;;;;;4994189;28;20470;-72
2024/03/27 10:43:14;;;;;;;1.05;0.90;;;;;;;;;;4994199;28;20493;-72
2024/03/27 10:45:40;;;;;;;0.75;0.75;;;;;;;;;;4994135;28;20038;-72
2024/03/27 10:48:05;;;;;;;0.90;0.90;;;;;;;;;;4994160;28;20045;-72
2024/03/27 10:50:32;;;;;;;1.48;0.90;;;;;;;;;;4976686;28;20030;-72
2024/03/27 10:53:00;;;;;;;1.20;1.10;;;;;;;;;;4995045;28;20034;-72
2024/03/27 10:55:25;;;;;;;1.73;1.35;;;;;;;;;;4978410;28;20030;-72
2024/03/27 10:57:51;;;;;;;0.80;0.80;;;;;;;;;;4995891;28;20385;-72
2024/03/27 11:00:16;;;;;;;1.15;1.05;;;;;;;;;;4978162;28;20030;-72
2024/03/27 11:02:51;;;;;;;2.10;1.40;;;;;;;;;;4995923;28;20474;-72
2024/03/27 11:05:17;;;;;;;3.03;1.63;;;;;;;;;;4996283;28;20041;-72
2024/03/27 11:07:43;;;;;;;3.97;1.98;;;;;;;;;;4974983;28;20081;-72
2024/03/27 11:10:10;;;;;;;2.00;1.15;;;;;;;;;;4976240;28;20054;-72
2024/03/27 11:12:36;;;;;;;1.73;1.45;;;;;;;;;;4976482;28;20499;-72
2024/03/27 11:15:05;;;;;;;2.10;1.20;;;;;;;;;;4976355;28;20031;-72
2024/03/27 11:17:31;;;;;;;2.00;1.02;;;;;;;;;;4976660;28;20455;-72
2024/03/27 11:19:59;;;;;;;1.83;1.40;;;;;;;;;;4976083;28;20031;-72
2024/03/27 11:26:15;;;;;;;3.20;1.13;;;;;;;;;;4976398;28;20025;-72
2024/03/27 11:28:50;;;;;;;1.50;1.40;;;;;;;;;;4974638;28;20055;-72
2024/03/27 11:31:19;;;;;;;1.98;1.15;;;;;;;;;;4991312;28;20031;-72
2024/03/27 11:33:44;;;;;;;1.40;1.30;;;;;;;;;;4975795;28;20122;-72
2024/03/27 11:36:10;;;;;;;1.55;1.13;;;;;;;;;;4975961;28;20101;-72
2024/03/27 11:38:35;;;;;;;4.30;1.40;;;;;;;;;;4975718;28;20026;-72
2024/03/27 11:41:00;;;;;;;2.88;1.40;;;;;;;;;;4974818;28;20027;-72
2024/03/27 11:43:26;;;;;;;2.40;1.30;;;;;;;;;;4975251;28;20023;-72
2024/03/27 11:45:51;;;;;;;1.60;1.15;;;;;;;;;;4975913;28;20026;-72
2024/03/27 11:48:18;;;;;;;3.47;1.27;;;;;;;;;;4975566;28;20382;-72
2024/03/27 11:50:44;;;;;;;3.58;1.60;;;;;;;;;;4975520;28;20445;-72
2024/03/27 11:53:09;;;;;;;1.50;0.95;;;;;;;;;;4974340;28;20035;-72
2024/03/27 11:55:35;;;;;;;1.02;1.00;;;;;;;;;;4975336;28;20446;-72
2024/03/27 11:58:00;;;;;;;2.95;1.08;;;;;;;;;;4975398;28;20215;-72
2024/03/27 12:00:25;;;;;;;1.65;1.40;;;;;;;;;;4974091;28;20018;-72
2024/03/27 12:02:51;;;;;;;1.50;1.40;;;;;;;;;;4974094;28;20074;-72
2024/03/27 12:05:16;;;;;;;1.30;1.17;;;;;;;;;;4975297;28;20482;-72
2024/03/27 12:07:42;;;;;;;3.33;1.00;;;;;;;;;;4994335;28;20486;-72
2024/03/27 12:10:10;;;;;;;4.97;1.42;;;;;;;;;;4994600;28;20382;-72
2024/03/27 12:12:35;;;;;;;2.67;1.35;;;;;;;;;;4993851;28;20037;-72
2024/03/27 12:15:01;;;;;;;3.78;1.50;;;;;;;;;;4960971;28;20381;-72
2024/03/27 12:17:36;;;;;;;2.15;1.17;;;;;;;;;;4994489;28;20034;-72
2024/03/27 12:20:06;;;;;;;3.10;2.03;;;;;;;;;;4994492;28;20363;-72
2024/03/27 12:22:32;;;;;;;3.13;2.05;;;;;;;;;;5009573;28;20045;-72
2024/03/27 12:24:57;;;;;;;3.28;2.35;;;;;;;;;;4977096;28;20022;-72
2024/03/27 12:27:24;;;;;;;1.85;1.75;;;;;;;;;;4994671;28;20030;-72
2024/03/27 12:29:50;;;;;;;5.47;2.95;;;;;;;;;;4977314;28;20397;-72
2024/03/27 12:32:18;;;;;;;2.90;2.03;;;;;;;;;;4994275;28;20031;-72
2024/03/27 12:34:43;;;;;;;4.05;2.20;;;;;;;;;;4994233;28;20462;-72
2024/03/27 12:37:08;;;;;;;2.17;1.38;;;;;;;;;;5009385;28;20015;-72
2024/03/27 12:39:34;;;;;;;2.38;1.77;;;;;;;;;;4994478;28;20026;-72
2024/03/27 12:42:01;;;;;;;3.58;2.33;;;;;;;;;;4994226;28;20026;-72
2024/03/27 12:44:26;;;;;;;5.13;2.50;;;;;;;;;;4994702;28;20488;-72
2024/03/27 12:46:51;;;;;;;3.28;1.63;;;;;;;;;;4994167;28;20026;-72
2024/03/27 12:49:17;;;;;;;3.60;1.65;;;;;;;;;;4976792;28;20489;-72
2024/03/27 12:51:43;;;;;;;6.35;1.52;;;;;;;;;;4994414;28;20026;-72
2024/03/27 12:54:09;;;;;;;4.38;2.80;;;;;;;;;;4994112;28;20462;-72
2024/03/27 12:56:34;;;;;;;4.88;2.10;;;;;;;;;;4993998;28;20034;-72
2024/03/27 12:58:59;;;;;;;4.47;2.13;;;;;;;;;;4994064;28;20026;-72
2024/03/27 13:01:25;;;;;;;7.15;3.10;;;;;;;;;;4994304;28;20113;-72
2024/03/27 13:03:51;;;;;;;3.05;2.38;;;;;;;;;;4992850;28;20022;-72
2024/03/27 13:06:16;;;;;;;4.57;3.28;;;;;;;;;;4976914;28;20053;-72
2024/03/27 13:08:42;;;;;;;11.77;4.25;;;;;;;;;;4993966;28;20031;-72
2024/03/27 13:11:07;;;;;;;5.38;3.05;;;;;;;;;;4994502;28;20092;-72
2024/03/27 13:13:32;;;;;;;6.72;3.20;;;;;;;;;;4993957;28;20124;-72
2024/03/27 13:15:58;;;;;;;5.63;3.50;;;;;;;;;;4994125;28;20069;-72
2024/03/27 13:18:23;;;;;;;11.30;4.90;;;;;;;;;;5009859;28;20041;-72
2024/03/27 13:20:49;;;;;;;10.43;4.78;;;;;;;;;;4992640;28;20031;-72
2024/03/27 13:23:15;;;;;;;13.40;4.55;;;;;;;;;;4994182;28;20029;-72
2024/03/27 13:25:40;;;;;;;5.72;2.95;;;;;;;;;;4997347;28;20389;-72
2024/03/27 13:28:05;;;;;;;6.68;2.58;;;;;;;;;;4980648;28;20037;-72
2024/03/27 13:30:31;;;;;;;5.55;3.13;;;;;;;;;;4999184;28;20473;-72
2024/03/27 13:33:00;;;;;;;4.63;1.50;;;;;;;;;;4999531;28;20465;-72
2024/03/27 13:35:25;;;;;;;1.70;1.27;;;;;;;;;;4997976;28;20018;-72
2024/03/27 13:37:51;;;;;;;2.28;1.10;;;;;;;;;;4997437;28;20034;-72
2024/03/27 13:40:16;;;;;;;2.40;1.48;;;;;;;;;;4997375;28;20018;-72
2024/03/27 13:42:42;;;;;;;1.13;1.00;;;;;;;;;;4997562;28;20461;-72
2024/03/27 13:45:07;;;;;;;1.17;1.08;;;;;;;;;;4997287;28;20058;-72
2024/03/27 13:47:33;;;;;;;0.93;0.82;;;;;;;;;;4997506;28;20088;-72
2024/03/27 13:49:58;;;;;;;3.72;0.98;;;;;;;;;;4997220;28;20025;-72
2024/03/27 13:52:23;;;;;;;1.30;0.90;;;;;;;;;;4980352;28;20042;-72
2024/03/27 13:54:49;;;;;;;1.40;0.90;;;;;;;;;;4979697;28;20031;-72
2024/03/27 13:57:14;;;;;;;0.98;0.98;;;;;;;;;;4997030;28;20474;-72
2024/03/27 13:59:39;;;;;;;1.20;1.10;;;;;;;;;;4997021;28;20385;-72
2024/03/27 14:02:05;;;;;;;2.15;0.93;;;;;;;;;;4996949;28;20393;-72
2024/03/27 14:04:30;;;;;;;1.90;1.10;;;;;;;;;;4997220;28;20030;-72
2024/03/27 14:06:56;;;;;;;1.13;1.02;;;;;;;;;;4979347;28;20038;-72
2024/03/27 14:09:21;;;;;;;1.02;0.68;;;;;;;;;;4997063;28;20488;-72
2024/03/27 14:11:46;;;;;;;0.77;0.63;;;;;;;;;;4996880;28;20019;-72
2024/03/27 14:14:12;;;;;;;0.70;0.70;;;;;;;;;;5011972;28;20441;-72
2024/03/27 14:16:37;;;;;;;1.02;0.93;;;;;;;;;;4996622;28;20390;-72
2024/03/27 14:19:03;;;;;;;1.30;0.90;;;;;;;;;;4996662;28;20425;-72
2024/03/27 14:21:29;;;;;;;2.20;1.10;;;;;;;;;;4996633;28;20110;-72
2024/03/27 14:23:54;;;;;;;1.10;1.00;;;;;;;;;;4996568;28;20030;-72
2024/03/27 14:26:20;;;;;;;2.58;1.85;;;;;;;;;;4996525;28;20105;-72
2024/03/27 14:28:45;;;;;;;4.07;2.78;;;;;;;;;;5003016;28;20049;-72
2024/03/27 14:31:10;;;;;;;1.88;1.05;;;;;;;;;;4994240;28;20076;-72
2024/03/27 14:33:36;;;;;;;1.27;1.10;;;;;;;;;;4994756;28;20038;-72
2024/03/27 14:36:01;;;;;;;5.25;1.00;;;;;;;;;;4992607;28;20047;-72
2024/03/27 14:38:26;;;;;;;3.45;1.40;;;;;;;;;;4992001;28;20026;-71